Station: Eudunda

  Atmospheric Gas Attenuation - ITU Rec 676-11   --------------- db/100km ---------------
Date Time Temp RH % AH g/m3 Dew Point Wind Direction Speed kph Gust kph Barometer mB Rainfall Since 9am 24GHz 47GHz 76GHz 122GHz 134GHz 241GHz
27 09:00 10 65 6.11 3.7 4 1027.5 0.2 14.4 23.5 32.3 84.1 71.2 242.5
26 09:00 8 84 6.95 5.4 24 1022.2 7 16.3 25.2 36.3 94.8 83.9 286.7
25 09:00 6.3 84 6.22 3.8 32 1010 19 14.8 24.0 33.5 87.7 75.0 255.4
24 09:00 9.1 84 7.46 6.6 17 1013.1 3 17.4 25.4 37.5 98.2 88.9 304.4
23 09:00 9.6 91 8.34 8.2 17 1013.1 0.8 19.2 26.7 40.9 107.3 100.3 344.5
22 09:00 11.1 74 7.46 6.6 65 1011 1 17.3 24.7 36.4 95.5 86.4 296.3
21 09:00 13.4 36 4.19 -1.3 17 1006.9 2 10.2 19.2 23.5 60.9 44.8 150.5
20 09:00 15.3 86 11.23 13 4 1007.5 3 25.2 29.6 49.6 130.7 131.6 454.8
19 09:00 22.8 53 10.77 12.9 4 1011.2 7 23.7 26.6 43.5 114.5 113.9 394.0
18 09:00 14.1 76 9.22 9.9 4 1022 0.1 20.9 27.2 42.6 111.7 107.0 368.6
17 09:00 13.4 72 8.37 8.5 28 1020.1 0 19.1 25.9 39.4 103.2 96.4 331.4
16 09:00 19.4 32 5.34 2.4 0 1020.2 0 12.5 19.9 26.0 67.4 54.4 184.7
15 09:00 9.2 84 7.5 6.7 7 1031.2 0.1 17.4 26.1 38.4 100.3 90.7 310.5
14 09:00 11 87 8.71 9 4 1031.3 0.2 19.9 27.6 42.5 111.5 105.1 361.3
13 09:00 12 82 8.74 9.1 0 1026.1 4 20.0 27.2 41.9 109.8 103.7 356.7
12 09:00 18 49 7.53 7.3 0 1022.9 0 17.1 23.4 34.2 89.3 80.8 277.4
11 09:00 19.5 40 6.71 5.5 1023.8 0 15.3 21.9 30.7 80.0 69.8 238.9
10 09:00 10.9 55 5.47 2.4 17 1024.2 0 13.0 22.2 29.4 76.5 62.2 211.2
09 09:00 10.8 79 7.81 7.3 17 1029.7 0.6 18.0 26.1 38.8 101.5 92.9 318.5
08 09:00 13.1 78 8.9 9.4 17 1024.1 0 20.3 27.0 41.9 109.8 104.2 358.7
06 09:00 13.5 71 8.31 8.4 11 1022.6 0.1 19.0 25.9 39.2 102.7 95.7 328.9
05 09:00 12.3 87 9.45 10.2 24 1021.1 0.1 21.5 28.1 44.5 116.8 112.7 388.2
04 09:00 9.1 91 8.08 7.7 9 1019.6 0.1 18.7 26.7 40.3 105.7 97.9 335.9
03 09:00 12.5 59 6.49 4.8 41 1013.7 0 15.1 23.0 32.2 84.1 72.8 248.7
02 09:00 13.9 78 9.35 10.1 1008.8 0 21.2 26.9 42.6 112.0 107.9 371.8
31 09:00 8 73 6.04 3.4 4 1028.6 2 14.4 24.0 32.9 85.7 72.2 245.7
30 09:00 12 78 8.31 8.4 44 1019.4 0 19.0 26.2 39.8 104.3 97.3 334.4
29 09:00 14 57 6.88 5.7 4 1026.2 0 15.9 23.6 33.6 87.6 77.1 263.6
28 09:00 10.1 91 8.61 8.7 7 1030.3 0 19.8 27.7 42.5 111.5 104.8 360.3
27 09:00 14.5 43 5.35 2 32 1027.4 0 12.7 21.3 27.8 72.3 58.3 197.7
26 09:00 9.9 62 5.79 3.1 0 1029.9 0.1 13.8 23.1 31.2 81.2 67.4 229.0
25 09:00 6.9 87 6.7 4.9 0 1031.8 0.1 15.8 25.5 36.2 94.4 82.3 281.0
24 09:00 7 86 6.67 4.8 0 1025.5 0.2 15.7 25.1 35.7 93.3 81.4 277.8
23 09:00 7 88 6.82 5.2 9 1021.1 1 16.1 25.2 36.1 94.5 83.1 283.9
22 09:00 1013.1
21 09:00 8.2 87 7.29 6.1 44 1009.1 13 17.0 25.2 37.0 97.0 87.3 298.9
20 09:00 8.6 92 7.91 7.4 28 1010.3 11 18.4 26.2 39.4 103.5 95.4 327.2
19 09:00 9 90 7.94 7.4 52 999.9 23 18.4 25.7 38.9 102.2 94.5 324.2
18 09:00 9.7 73 6.73 5.2 37 1002.8 2 15.8 23.7 33.8 88.6 77.8 266.0
17 09:00 8.5 71 6.06 3.5 0 1010.7 0.1 14.4 23.2 32.0 83.7 70.9 241.3
16 09:00 9 97 8.55 8.6 17 1019.7 0.6 19.7 27.5 42.4 111.2 104.6 359.4
15 09:00 10 93 8.74 9 0 1016.4 2 20.1 27.4 42.5 111.6 105.6 363.1
14 09:00 10.5 92 8.92 9.3 0 1011.8 2 20.4 27.4 42.8 112.4 107.0 368.2
13 09:00 10.9 89 8.85 9.1 17 1001.2 1 20.3 26.7 41.8 109.9 104.6 359.8
12 09:00 12.3 83 9.01 9.6 17 1007.4 5 20.6 26.8 42.0 110.3 105.4 362.8
11 09:00 9 85 7.5 6.7 11 1012.6 0 17.5 25.5 37.6 98.7 89.5 306.6
10 09:00 9.2 76 6.79 5.3 0 1021.6 0.1 15.9 24.6 35.1 91.6 80.4 274.8
09 09:00 5.8 97 6.95 5.4 4 1019.4 6 16.4 25.7 37.2 97.3 86.1 294.2
08 09:00 6.5 95 7.13 5.8 0 1010.7 18 16.8 25.5 37.2 97.5 87.1 298.1
07 09:00 4.5 97 6.38 4 17 1013 6 15.2 24.9 35.1 91.8 79.1 269.8
06 09:00 2.9 81 4.79 0 9 1020.4 0 11.9 23.0 29.6 76.9 59.6 200.8
05 09:00 4.1 82 5.25 1.3 4 1020.8 0 12.8 23.4 31.0 80.6 64.7 219.1
04 09:00 5.6 91 6.44 4.2 4 1020.4 0.5 15.3 25.0 35.2 91.9 79.3 270.5
03 09:00 9.5 80 7.28 6.3 9 1020.3 0.1 17.0 25.2 36.8 96.4 86.5 296.2
02 09:00 14.5 39 4.85 0.7 9 1023.6 0 11.6 20.4 26.0 67.3 52.3 176.8
31 09:00 10.1 81 7.66 7 7 1028.6 0.1 17.7 26.0 38.5 100.7 91.6 313.9
30 09:00 9.6 93 8.52 8.6 0 1029.4 0.2 19.6 27.7 42.4 111.1 104.2 357.9
29 09:00 10.8 71 7.02 5.7 24 1022.7 0.1 16.3 24.6 35.3 92.3 81.8 280.0
28 09:00 6.1 85 6.21 3.8 0 1022.6 0.6 14.8 24.5 34.1 89.0 75.9 258.4
27 09:00 9.4 95 8.59 8.6 4 1023.9 0.2 19.8 27.6 42.5 111.6 105.0 360.7
26 09:00 10.6 78 7.61 6.9 0 1024.1 0 17.6 25.6 37.8 99.0 90.0 308.4
25 09:00 12 52 5.54 2.5 4 1022.5 0 13.1 22.0 29.2 76.0 62.1 211.0
24 09:00 9.1 70 6.21 3.9 4 1022 0 14.7 23.7 32.8 85.6 73.0 248.6
22 09:00 6 83 6.03 3.4 7 1031.3 0 14.4 24.6 33.8 88.0 74.1 252.1
21 09:00 5.1 99 6.78 4.9 0 1032.8 0.2 16.1 26.2 37.4 97.6 85.5 291.8
20 09:00 7.2 97 7.62 6.8 17 1027.6 0.2 17.8 26.8 39.7 103.9 94.4 323.6
19 09:00 10.2 85 8.09 7.8 33 1016 0.2 18.7 26.2 39.6 104.0 96.3 330.7
18 09:00 11.2 53 5.37 2 24 1015.6 0 12.8 21.7 28.6 74.5 60.3 204.6
17 09:00 10.4 70 6.75 5.2 7 1022.9 0 15.8 24.2 34.4 90.0 78.8 269.1
16 09:00 10.2 62 5.9 3.2 7 1025.1 0 14.0 23.0 31.3 81.6 68.2 232.1
14 09:00 7.5 96 7.69 6.9 0 1028.9 0.2 17.9 26.9 39.9 104.4 95.2 326.1
13 09:00 9 87 7.67 6.9 4 1027.9 0.4 17.8 26.3 39.0 102.1 93.0 318.7
12 09:00 7.8 96 7.84 7.2 9 1019.8 1 18.2 26.7 40.0 104.8 96.2 329.8
11 09:00 7 93 7.21 5.9 0 1017.2 6 16.9 25.7 37.6 98.5 88.2 301.7
10 09:00 10.9 48 4.78 0.4 17 1021.1 0 11.6 21.1 26.8 69.5 53.8 181.4
09 09:00 3 96 5.71 2.5 0 1025.6 0.1 13.8 24.7 33.5 87.3 72.2 245.1
08 09:00 6.2 85 6.25 3.9 0 1028.7 0.1 14.9 24.8 34.5 89.9 76.7 261.3
07 09:00 7.5 72 5.77 2.8 11 1032.3 0 13.8 23.8 32.2 83.7 69.4 235.6
06 09:00 7.5 79 6.33 4.1 9 1033.8 0 15.0 24.8 34.5 89.8 76.9 261.9
05 09:00 9 80 7.06 5.8 24 1031.4 0.4 16.5 25.4 36.7 95.8 84.9 290.4
04 09:00 7.8 96 7.84 7.2 9 1031.3 1 18.2 27.1 40.5 106.0 97.1 332.9
02 09:00 7.4 93 7.4 6.3 32 1017.7 1 17.3 25.9 38.2 100.1 90.4 309.4
01 09:00 14.5 40 4.98 1.1 13 1013 0 11.9 20.3 26.0 67.7 53.3 180.3
30 09:00 10.1 43 4.07 -1.8 24 1016.1 0.1 10.1 20.0 24.3 63.0 45.7 153.1
29 09:00 5.5 77 5.41 1.8 9 1024.8 0 13.1 23.5 31.2 81.3 65.9 223.3
28 09:00 8.5 59 5.04 1 0 1028.8 0 12.2 22.3 28.8 74.8 59.0 199.5
27 09:00 7.4 79 6.29 4 0 1028.5 0.1 14.9 24.5 34.1 89.0 76.1 259.2
26 09:00 9 88 7.76 7.1 0 1027.8 0.2 18.0 26.5 39.4 103.1 94.2 323.0
25 09:00 10.1 62 5.86 3.3 13 1022.9 0 13.9 22.9 31.1 81.1 67.7 230.2
24 09:00 7.6 96 7.74 7 24 1021.7 0.4 18.0 26.6 39.7 104.1 95.2 326.2
23 09:00 8.2 95 7.96 7.4 35 1021 0.6 18.5 26.8 40.3 105.7 97.4 334.3
22 09:00 9 97 8.55 8.6 24 1018.1 5 19.7 27.4 42.3 111.0 104.4 358.9
21 09:00 9.5 93 8.47 8.5 33 1013.2 10 19.5 27.0 41.5 108.9 102.2 351.3
20 09:00 8.9 95 8.32 8.1 9 1017.7 0.2 19.2 27.1 41.4 108.5 101.3 347.9
19 09:00 14.5 36 4.48 -0.2 32 1019.6 0 10.8 19.8 24.6 63.6 48.0 161.5
18 09:00 8.9 70 6.13 3.7 4 1031.1 0.1 14.5 24.0 33.0 85.9 72.7 247.5
17 09:00 9.6 91 8.34 8.2 0 1033.6 1 19.2 27.5 41.8 109.5 102.0 350.2
16 09:00 11.5 93 9.61 10.4 22 1025.5 0.4 21.9 28.8 45.8 120.4 116.6 401.5
15 09:00 12.4 83 9.07 9.7 24 1023.3 0.4 20.7 27.5 42.9 112.6 107.5 369.9
14 09:00 8.5 90 7.69 7 17 1019.5 2 17.9 26.2 39.0 102.1 93.2 319.5

Last Refresh: 27-Sep-2020 13:18:20

Most of the information presented on this site is sourced from the Bureau of Meteorology.  Copyright in all material sourced from the Bureau of Meteorology resides with the Commonwealth of Australia.